createdAt,value
2019-04-14T00:01:41.247Z,8.79
2019-04-14T00:04:14.640Z,8.75
2019-04-14T00:06:46.427Z,8.74
2019-04-14T00:09:18.987Z,8.70
2019-04-14T00:11:50.738Z,8.62
2019-04-14T00:14:22.903Z,8.70
2019-04-14T00:16:55.327Z,8.67
2019-04-14T00:19:28.343Z,8.71
2019-04-14T00:22:03.071Z,8.64
2019-04-14T00:24:35.736Z,8.61
2019-04-14T00:27:08.646Z,8.58
2019-04-14T00:29:41.424Z,8.60
2019-04-14T00:32:13.996Z,8.61
2019-04-14T00:34:53.127Z,8.52
2019-04-14T00:37:27.355Z,8.53
2019-04-14T00:40:04.034Z,8.45
2019-04-14T00:42:37.129Z,8.45
2019-04-14T00:45:11.205Z,8.46
2019-04-14T00:47:54.766Z,8.53
2019-04-14T00:50:18.949Z,8.50
2019-04-14T00:52:50.509Z,8.48
2019-04-14T00:55:22.592Z,8.46
2019-04-14T00:57:55.132Z,8.41
2019-04-14T01:00:27.599Z,8.48
2019-04-14T01:03:00.183Z,8.34
2019-04-14T01:05:34.194Z,8.35
2019-04-14T01:08:05.476Z,8.25
2019-04-14T01:10:36.989Z,8.30
2019-04-14T01:13:11.103Z,8.31
2019-04-14T01:15:51.544Z,8.34
2019-04-14T01:18:15.068Z,8.30
2019-04-14T01:20:47.105Z,8.30
2019-04-14T01:23:19.352Z,8.28
2019-04-14T01:25:51.996Z,8.26
2019-04-14T01:28:24.375Z,8.23
2019-04-14T01:30:56.606Z,8.28
2019-04-14T01:33:29.298Z,8.30
2019-04-14T01:36:01.723Z,8.34
2019-04-14T01:38:34.351Z,8.30
2019-04-14T01:41:06.451Z,8.27
2019-04-14T01:43:38.559Z,8.29
2019-04-14T01:46:16.600Z,8.31
2019-04-14T01:48:43.392Z,8.28
2019-04-14T01:51:17.914Z,8.26
2019-04-14T01:53:53.859Z,8.30
2019-04-14T01:56:42.807Z,8.21
2019-04-14T01:59:15.285Z,8.19
2019-04-14T02:01:48.306Z,8.15
2019-04-14T02:04:20.337Z,8.18
2019-04-14T02:06:52.698Z,8.14
2019-04-14T02:09:25.145Z,8.23
2019-04-14T02:11:57.471Z,8.19
2019-04-14T02:14:30.151Z,8.15
2019-04-14T02:17:04.226Z,8.07
2019-04-14T02:19:34.961Z,8.13
2019-04-14T02:22:07.357Z,8.17
2019-04-14T02:24:39.563Z,8.13
2019-04-14T02:27:12.082Z,8.09
2019-04-14T02:29:43.568Z,8.05
2019-04-14T02:32:45.217Z,7.98
2019-04-14T02:37:58.096Z,8.01
2019-04-14T02:40:30.302Z,7.97
2019-04-14T02:45:52.019Z,7.89
2019-04-14T02:50:32.370Z,7.92
2019-04-14T02:55:42.521Z,7.86
2019-04-14T02:58:24.626Z,7.86
2019-04-14T03:00:53.668Z,7.85
2019-04-14T03:03:27.883Z,7.80
2019-04-14T03:08:39.783Z,7.76
2019-04-14T03:11:01.588Z,7.76
2019-04-14T03:13:35.259Z,7.77
2019-04-14T03:24:03.153Z,7.86
2019-04-14T03:26:44.739Z,7.83
2019-04-14T03:32:14.209Z,7.82
2019-04-14T03:37:30.672Z,7.75
2019-04-14T03:39:38.826Z,7.69
2019-04-14T03:44:49.276Z,7.65
2019-04-14T03:47:19.481Z,7.62
2019-04-14T03:49:54.330Z,7.63
2019-04-14T03:52:33.239Z,7.65
2019-04-14T03:54:52.490Z,7.59
2019-04-14T03:57:06.291Z,7.66
2019-04-14T03:59:39.226Z,7.65
2019-04-14T04:02:11.811Z,7.68
2019-04-14T04:04:44.466Z,7.68
2019-04-14T04:07:17.098Z,7.56
2019-04-14T04:09:50.363Z,7.59
2019-04-14T04:12:22.582Z,7.59
2019-04-14T04:14:55.215Z,7.51
2019-04-14T04:17:38.735Z,7.53
2019-04-14T04:20:17.770Z,7.55
2019-04-14T04:23:00.843Z,7.50
2019-04-14T04:25:37.839Z,7.49
2019-04-14T04:28:23.250Z,7.52
2019-04-14T04:30:56.443Z,7.50
2019-04-14T04:33:32.722Z,7.54
2019-04-14T04:36:11.816Z,7.53
2019-04-14T04:38:46.334Z,7.45
2019-04-14T04:41:18.905Z,7.52
2019-04-14T04:43:51.732Z,7.60
2019-04-14T04:46:24.336Z,7.56
2019-04-14T04:49:04.499Z,7.60
2019-04-14T04:51:29.076Z,7.57
2019-04-14T04:54:01.713Z,7.62
2019-04-14T04:56:34.080Z,7.58
2019-04-14T04:59:05.848Z,7.54
2019-04-14T05:01:38.662Z,7.52
2019-04-14T05:04:11.105Z,7.47
2019-04-14T05:07:01.327Z,7.43
2019-04-14T05:09:38.819Z,7.44
2019-04-14T05:12:13.191Z,7.45
2019-04-14T05:14:46.598Z,7.44
2019-04-14T05:17:19.785Z,7.43
2019-04-14T05:19:51.923Z,7.50
2019-04-14T05:22:24.619Z,7.47
2019-04-14T05:24:57.192Z,7.42
2019-04-14T05:27:29.776Z,7.50
2019-04-14T05:30:02.689Z,7.51
2019-04-14T05:32:34.717Z,7.59
2019-04-14T05:35:07.621Z,7.55
2019-04-14T05:37:40.089Z,7.47
2019-04-14T05:40:12.437Z,7.47
2019-04-14T05:42:45.070Z,7.49
2019-04-14T05:45:17.677Z,7.47
2019-04-14T05:47:50.189Z,7.53
2019-04-14T05:50:22.685Z,7.49
2019-04-14T05:52:54.152Z,7.54
2019-04-14T05:55:26.286Z,7.54
2019-04-14T05:57:59.104Z,7.58
2019-04-14T06:00:32.083Z,7.56
2019-04-14T06:03:03.843Z,7.57
2019-04-14T06:05:36.156Z,7.51
2019-04-14T06:08:07.838Z,7.52
2019-04-14T06:10:39.599Z,7.51
2019-04-14T06:13:11.870Z,7.55
2019-04-14T06:15:43.615Z,7.56
2019-04-14T06:18:15.374Z,7.51
2019-04-14T06:20:47.235Z,7.47
2019-04-14T06:23:18.789Z,7.54
2019-04-14T06:25:50.437Z,7.45
2019-04-14T06:28:22.093Z,7.47
2019-04-14T06:30:55.487Z,7.55
2019-04-14T06:33:28.617Z,7.53
2019-04-14T06:36:19.903Z,7.53
2019-04-14T06:38:53.465Z,7.58
2019-04-14T06:41:25.048Z,7.57
2019-04-14T06:43:56.842Z,7.68
2019-04-14T06:46:28.388Z,7.78
2019-04-14T06:49:00.031Z,7.79
2019-04-14T06:51:31.669Z,7.71
2019-04-14T06:54:03.637Z,7.78
2019-04-14T06:56:35.285Z,7.75
2019-04-14T06:59:07.150Z,7.77
2019-04-14T07:01:39.082Z,7.81
2019-04-14T07:04:10.966Z,7.86
2019-04-14T07:06:44.461Z,7.93
2019-04-14T07:09:16.635Z,8.02
2019-04-14T07:11:48.293Z,8.15
2019-04-14T07:14:20.153Z,8.23
2019-04-14T07:16:51.935Z,8.26
2019-04-14T07:19:23.662Z,8.29
2019-04-14T07:21:55.593Z,8.36
2019-04-14T07:24:27.508Z,8.33
2019-04-14T07:26:59.059Z,8.23
2019-04-14T07:29:32.437Z,8.30
2019-04-14T07:32:22.417Z,8.39
2019-04-14T07:35:01.753Z,8.43
2019-04-14T07:37:52.461Z,8.47
2019-04-14T07:40:42.428Z,8.48
2019-04-14T07:43:21.460Z,8.35
2019-04-14T07:45:54.858Z,8.31
2019-04-14T07:48:28.046Z,8.27
2019-04-14T07:51:01.237Z,8.26
2019-04-14T07:53:46.613Z,8.35
2019-04-14T07:56:20.014Z,8.46
2019-04-14T08:00:44.877Z,8.49
2019-04-14T21:25:36.117Z,4.99
2019-04-14T21:28:25.718Z,5.00
2019-04-14T21:31:15.157Z,5.04
2019-04-14T21:33:54.697Z,5.15
2019-04-14T21:36:40.484Z,5.28
2019-04-14T21:39:30.270Z,5.33
2019-04-14T21:42:02.250Z,5.37
2019-04-14T21:44:33.835Z,5.43
2019-04-14T21:47:05.875Z,5.45
2019-04-14T21:49:37.701Z,5.51
2019-04-14T21:52:20.010Z,5.52
2019-04-14T21:54:51.787Z,5.55
2019-04-14T21:57:28.047Z,5.56
2019-04-14T22:00:19.958Z,5.59
2019-04-14T22:03:13.577Z,5.62
2019-04-14T22:05:46.840Z,5.66
2019-04-14T22:08:25.975Z,5.63
2019-04-14T22:11:06.402Z,5.65
2019-04-14T22:13:38.194Z,5.62
2019-04-14T22:16:09.823Z,5.67
2019-04-14T22:18:41.644Z,5.61
2019-04-14T22:21:13.547Z,5.59
2019-04-14T22:23:45.323Z,5.61
2019-04-14T22:26:25.982Z,5.60
2019-04-14T22:28:50.553Z,5.64
2019-04-14T22:31:22.333Z,5.56
2019-04-14T22:33:54.092Z,5.58
2019-04-14T22:36:25.936Z,5.50
2019-04-14T22:38:57.735Z,5.49
2019-04-14T22:41:29.445Z,5.45
2019-04-14T22:44:01.204Z,5.40
2019-04-14T22:46:35.626Z,5.41
2019-04-14T22:49:07.417Z,5.31
2019-04-14T22:51:39.365Z,5.31
2019-04-14T22:54:11.122Z,5.33
2019-04-14T22:56:42.773Z,5.29
2019-04-14T22:59:14.637Z,5.28
2019-04-14T23:01:50.780Z,5.21
2019-04-14T23:04:36.974Z,5.23
2019-04-14T23:07:13.132Z,5.24
2019-04-14T23:09:46.627Z,5.23
2019-04-14T23:12:25.960Z,5.22
2019-04-14T23:15:01.971Z,5.22
2019-04-14T23:17:38.090Z,5.18
2019-04-14T23:20:14.563Z,5.20
2019-04-14T23:23:00.229Z,5.19
2019-04-14T23:25:32.714Z,5.08
2019-04-14T23:28:04.560Z,5.13
2019-04-14T23:30:36.494Z,5.08
2019-04-14T23:33:08.114Z,5.12
2019-04-14T23:35:39.835Z,5.17
2019-04-14T23:38:11.698Z,5.15
2019-04-14T23:40:43.312Z,5.18
2019-04-14T23:43:15.124Z,5.10
2019-04-14T23:45:46.975Z,5.09
2019-04-14T23:48:18.927Z,5.13
2019-04-14T23:50:52.148Z,5.07
2019-04-14T23:53:23.564Z,5.05
2019-04-14T23:55:55.658Z,5.09
2019-04-14T23:58:28.515Z,5.06
